createdAt,value
2018-01-13T00:00:34.769Z,41.30
2018-01-13T00:03:02.270Z,50.13
2018-01-13T00:05:29.773Z,42.17
2018-01-13T00:07:57.264Z,46.07
2018-01-13T00:10:24.773Z,50.07
2018-01-13T00:12:53.033Z,44.20
2018-01-13T00:15:21.346Z,43.57
2018-01-13T00:17:48.845Z,45.00
2018-01-13T00:20:16.361Z,42.67
2018-01-13T00:22:43.865Z,44.33
2018-01-13T00:25:11.360Z,43.80
2018-01-13T00:27:39.637Z,41.70
2018-01-13T00:30:07.893Z,41.33
2018-01-13T00:32:35.405Z,42.10
2018-01-13T00:35:02.902Z,40.80
2018-01-13T00:37:30.450Z,42.07
2018-01-13T00:39:57.947Z,52.60
2018-01-13T00:43:30.450Z,50.77
2018-01-13T00:45:57.952Z,49.40
2018-01-13T00:48:25.457Z,45.17
2018-01-13T00:50:52.970Z,66.63
2018-01-13T00:53:20.457Z,45.50
2018-01-13T00:55:48.775Z,44.37
2018-01-13T00:58:16.270Z,43.53
2018-01-13T01:00:43.807Z,45.37
2018-01-13T01:03:11.304Z,47.23
2018-01-13T01:05:39.598Z,45.53
2018-01-13T01:08:07.096Z,44.30
2018-01-13T01:10:34.596Z,48.73
2018-01-13T01:13:02.883Z,46.53
2018-01-13T01:15:31.141Z,43.47
2018-01-13T01:17:58.648Z,48.00
2018-01-13T01:20:26.158Z,45.70
2018-01-13T01:22:53.663Z,44.77
2018-01-13T01:25:21.163Z,46.60
2018-01-13T01:27:48.832Z,42.07
2018-01-13T01:30:16.329Z,42.10
2018-01-13T11:20:14.750Z,14.10
2018-01-13T11:22:43.042Z,12.90
2018-01-13T11:25:10.635Z,12.77
2018-01-13T11:27:38.230Z,11.57
2018-01-13T11:30:06.572Z,13.10
2018-01-13T11:32:34.082Z,14.20
2018-01-13T11:35:02.440Z,13.33
2018-01-13T11:37:29.954Z,15.23
2018-01-13T11:39:57.481Z,13.07
2018-01-13T11:42:25.766Z,12.77
2018-01-13T11:44:53.322Z,12.33
2018-01-13T11:47:21.647Z,11.87
2018-01-13T11:49:49.153Z,12.50
2018-01-13T11:52:17.467Z,12.07
2018-01-13T11:54:45.011Z,12.60
2018-01-13T11:57:12.513Z,11.30
2018-01-13T11:59:40.026Z,12.00
2018-01-13T12:02:07.574Z,12.63
2018-01-13T12:04:35.106Z,11.83
2018-01-13T12:07:02.622Z,11.27
2018-01-13T12:09:30.181Z,12.60
2018-01-13T12:11:57.689Z,12.10
2018-01-13T12:14:26.001Z,11.07
2018-01-13T12:16:53.507Z,11.50
2018-01-13T12:19:21.024Z,10.87
2018-01-13T12:21:48.526Z,10.50
2018-01-13T12:24:16.066Z,10.60
2018-01-13T12:26:43.573Z,10.13
2018-01-13T12:29:11.841Z,9.17
2018-01-13T12:31:40.147Z,9.00
2018-01-13T12:34:07.642Z,8.00
2018-01-13T12:36:35.145Z,9.50
2018-01-13T12:39:03.397Z,9.47
2018-01-13T12:41:30.881Z,9.17
2018-01-13T12:43:59.144Z,9.63
2018-01-13T12:46:27.401Z,9.10
2018-01-13T13:07:20.961Z,7.07
2018-01-13T13:09:48.453Z,7.40
2018-01-13T13:12:15.962Z,7.50
2018-01-13T13:14:43.438Z,7.60
2018-01-13T13:17:10.937Z,7.43
2018-01-13T13:19:38.443Z,8.00
2018-01-13T13:22:05.926Z,8.67
2018-01-13T13:24:33.423Z,8.60
2018-01-13T13:27:01.685Z,7.80
2018-01-13T13:29:29.203Z,8.07
2018-01-13T13:31:56.685Z,7.67
2018-01-13T13:34:24.177Z,7.27
2018-01-13T13:36:51.689Z,8.07
2018-01-13T13:39:19.175Z,8.33
2018-01-13T13:41:46.679Z,8.20
2018-01-13T13:44:14.165Z,8.13
2018-01-13T13:46:41.669Z,9.60
2018-01-13T13:49:09.952Z,8.70
2018-01-13T13:51:38.252Z,8.00
2018-01-13T13:54:05.745Z,9.20
2018-01-13T13:56:33.238Z,7.83
2018-01-13T13:59:01.528Z,7.80
2018-01-13T14:01:29.821Z,8.37
2018-01-13T14:03:57.322Z,8.80
2018-01-13T14:06:24.815Z,7.50
2018-01-13T14:08:52.346Z,8.10
2018-01-13T14:11:19.825Z,7.87
2018-01-13T14:13:47.325Z,8.53
2018-01-13T14:16:14.822Z,8.00
2018-01-13T14:18:42.329Z,8.67
2018-01-13T14:21:09.822Z,8.00
2018-01-13T14:23:37.359Z,9.30
2018-01-13T14:26:04.859Z,8.97
2018-01-13T14:28:32.336Z,8.37
2018-01-13T14:30:59.848Z,9.87
2018-01-13T14:33:27.333Z,9.27
2018-01-13T14:35:54.842Z,11.03
2018-01-13T14:38:22.341Z,10.00
2018-01-13T14:40:49.884Z,10.33
2018-01-13T14:43:17.369Z,10.43
2018-01-13T14:45:44.854Z,9.40
2018-01-13T14:48:13.125Z,10.10
2018-01-13T14:50:41.383Z,10.90
2018-01-13T14:53:08.894Z,9.10
2018-01-13T14:55:36.382Z,10.20
2018-01-13T14:58:03.889Z,10.90
2018-01-13T15:00:32.171Z,11.30
2018-01-13T15:03:00.437Z,10.00
2018-01-13T15:05:28.725Z,12.27
2018-01-13T15:07:56.252Z,10.47
2018-01-13T15:10:23.759Z,9.60
2018-01-13T15:12:51.242Z,10.47
2018-01-13T15:15:18.753Z,10.60
2018-01-13T15:17:47.021Z,10.00
2018-01-13T15:20:15.281Z,9.33
2018-01-13T15:22:42.792Z,10.40
2018-01-13T15:25:10.289Z,10.30
2018-01-13T15:27:37.807Z,12.45
2018-01-13T15:30:05.309Z,10.30
2018-01-13T15:32:32.819Z,10.10
2018-01-13T15:35:00.334Z,11.07
2018-01-13T15:37:27.846Z,9.83
2018-01-13T15:39:55.350Z,9.50
2018-01-13T15:42:22.853Z,12.07
2018-01-13T15:44:50.361Z,13.00
2018-01-13T15:47:17.855Z,12.37
2018-01-13T15:49:46.125Z,11.40
2018-01-13T15:52:14.394Z,12.90
2018-01-13T15:54:42.673Z,13.00
2018-01-13T15:57:10.934Z,12.03
2018-01-13T15:59:38.539Z,11.70
2018-01-13T16:02:06.049Z,12.03
2018-01-13T16:04:33.537Z,11.43
2018-01-13T16:07:01.809Z,13.43
2018-01-13T16:09:30.080Z,12.40
2018-01-13T16:11:58.402Z,12.00
2018-01-13T16:14:25.900Z,11.90
2018-01-13T16:16:53.401Z,12.23
2018-01-13T16:19:20.918Z,12.90
2018-01-13T16:21:48.468Z,14.00
2018-01-13T16:24:15.966Z,13.63
2018-01-13T16:26:44.230Z,12.77
2018-01-13T16:29:12.521Z,13.53
2018-01-13T16:31:40.797Z,13.07
2018-01-13T16:34:09.085Z,13.00
2018-01-13T16:36:36.592Z,12.90
2018-01-13T16:39:05.632Z,12.10
2018-01-13T16:41:33.898Z,12.63
2018-01-13T16:44:02.189Z,11.50
2018-01-13T16:46:29.751Z,14.93
2018-01-13T16:48:57.309Z,14.03
2018-01-13T16:51:25.585Z,12.80
2018-01-13T16:53:53.105Z,13.50
2018-01-13T16:56:20.626Z,14.23
2018-01-13T16:58:48.146Z,13.53
2018-01-13T17:01:16.453Z,13.30
2018-01-13T17:03:44.327Z,13.73
2018-01-13T17:06:12.887Z,14.70
2018-01-13T17:08:41.153Z,13.03
2018-01-13T17:11:09.413Z,12.60
2018-01-13T17:13:37.023Z,14.77
2018-01-13T17:16:04.518Z,13.53
2018-01-13T17:18:32.089Z,12.97
2018-01-13T17:20:59.605Z,13.40
2018-01-13T17:23:27.118Z,13.97
2018-01-13T17:25:55.384Z,13.47
2018-01-13T17:28:23.277Z,14.27
2018-01-13T17:30:51.533Z,12.70
2018-01-13T17:33:19.038Z,13.47
2018-01-13T17:35:46.563Z,13.17
2018-01-13T17:38:15.053Z,14.07
2018-01-13T17:40:43.328Z,14.50
2018-01-13T17:43:11.585Z,13.80
2018-01-13T17:45:39.129Z,13.10
2018-01-13T17:48:06.653Z,12.10
2018-01-13T17:50:34.322Z,12.73
2018-01-13T17:53:01.821Z,13.60
2018-01-13T17:55:29.338Z,13.00
2018-01-13T17:57:56.857Z,13.67
2018-01-13T18:00:25.119Z,12.90
2018-01-13T18:02:52.626Z,13.60
2018-01-13T18:05:20.146Z,12.50
2018-01-13T18:07:48.517Z,13.27
2018-01-13T18:10:16.025Z,13.20
2018-01-13T18:12:43.565Z,12.20
2018-01-13T18:15:11.084Z,13.10
2018-01-13T18:17:38.650Z,12.53
2018-01-13T18:20:07.708Z,12.97
2018-01-13T18:22:35.201Z,11.83
2018-01-13T18:25:02.720Z,11.87
2018-01-13T18:27:30.214Z,12.90
2018-01-13T18:29:57.718Z,12.20
2018-01-13T18:32:25.221Z,12.70
2018-01-13T18:34:52.741Z,12.63
2018-01-13T18:37:20.241Z,12.13
2018-01-13T18:39:47.742Z,12.07
2018-01-13T18:42:16.013Z,13.37
2018-01-13T18:44:44.269Z,13.43
2018-01-13T18:47:11.794Z,12.33
2018-01-13T18:49:39.277Z,13.37
2018-01-13T18:52:06.818Z,13.33
2018-01-13T18:54:34.312Z,12.90
2018-01-13T18:57:01.816Z,13.40
2018-01-13T18:59:29.328Z,14.60
2018-01-13T19:01:56.828Z,15.47
2018-01-13T19:04:24.348Z,13.63
2018-01-13T19:06:51.837Z,12.30
2018-01-13T19:09:20.341Z,12.70
2018-01-13T19:11:47.837Z,13.07
2018-01-13T19:14:15.333Z,13.70
2018-01-13T19:16:42.843Z,12.67
2018-01-13T19:19:10.366Z,12.37
2018-01-13T19:21:37.876Z,12.53
2018-01-13T19:24:05.385Z,12.30
2018-01-13T19:26:32.913Z,12.80
2018-01-13T19:29:01.169Z,13.20
2018-01-13T19:31:28.674Z,13.10
2018-01-13T19:33:56.181Z,13.10
2018-01-13T19:36:23.673Z,12.87
2018-01-13T19:38:51.949Z,12.13
2018-01-13T19:41:20.213Z,13.27
2018-01-13T19:43:48.509Z,13.00
2018-01-13T19:46:16.765Z,13.80
2018-01-13T19:48:45.025Z,13.97
2018-01-13T19:51:12.538Z,11.37
2018-01-13T19:53:40.029Z,11.80
2018-01-13T19:56:07.560Z,12.07
2018-01-13T19:58:35.049Z,12.87
2018-01-13T20:01:02.578Z,12.37
2018-01-13T20:03:30.142Z,11.20
2018-01-13T20:05:58.368Z,12.93
2018-01-13T20:08:25.943Z,13.20
2018-01-13T20:10:54.204Z,12.87
2018-01-13T20:13:21.733Z,13.30
2018-01-13T20:15:49.225Z,13.10
2018-01-13T20:18:17.519Z,12.57
2018-01-13T20:20:45.801Z,12.57
2018-01-13T20:23:13.294Z,12.40
2018-01-13T20:25:40.801Z,17.10
2018-01-13T20:28:08.314Z,13.43
2018-01-13T20:30:35.827Z,13.60
2018-01-13T20:33:04.086Z,14.80
2018-01-13T20:35:32.438Z,13.97
2018-01-13T20:37:59.929Z,13.53
2018-01-13T20:40:28.204Z,13.60
2018-01-13T20:42:56.485Z,13.50
2018-01-13T20:45:24.749Z,15.53
2018-01-13T20:47:52.300Z,14.40
2018-01-13T20:50:19.792Z,13.83
2018-01-13T20:52:48.091Z,16.00
2018-01-13T20:55:15.606Z,13.20
2018-01-13T20:57:43.093Z,14.10
2018-01-13T21:00:10.605Z,15.00
2018-01-13T21:02:38.096Z,13.40
2018-01-13T21:05:06.374Z,14.27
2018-01-13T21:07:34.634Z,15.30
2018-01-13T21:10:02.153Z,14.87
2018-01-13T21:12:29.643Z,14.23
2018-01-13T21:14:57.259Z,13.63
2018-01-13T21:17:24.752Z,13.27
2018-01-13T21:19:52.244Z,15.03
2018-01-13T21:22:20.514Z,14.73
2018-01-13T21:24:48.790Z,14.97
2018-01-13T21:27:16.300Z,14.10
2018-01-13T21:29:43.785Z,14.00
2018-01-13T21:32:11.289Z,17.00
2018-01-13T21:35:51.924Z,15.20
2018-01-13T21:38:19.441Z,14.30
2018-01-13T21:40:46.925Z,14.37
2018-01-13T21:43:14.451Z,15.37
2018-01-13T21:45:41.948Z,13.83
2018-01-13T21:48:09.441Z,15.37
2018-01-13T21:50:37.734Z,14.93
2018-01-13T21:53:05.256Z,15.03
2018-01-13T21:55:32.769Z,15.20
2018-01-13T21:58:00.258Z,16.00
2018-01-13T22:00:27.772Z,15.90
2018-01-13T22:02:55.261Z,13.67
2018-01-13T22:05:22.772Z,14.20
2018-01-13T22:07:51.038Z,15.33
2018-01-13T22:10:19.325Z,12.67
2018-01-13T22:12:47.609Z,13.10
2018-01-13T22:15:15.894Z,14.57
2018-01-13T22:17:43.414Z,15.60
2018-01-13T22:20:10.922Z,14.00
2018-01-13T22:22:38.425Z,14.17
2018-01-13T22:25:05.914Z,15.17
2018-01-13T22:27:34.205Z,12.60
2018-01-13T22:30:02.460Z,13.37
2018-01-13T22:32:30.734Z,12.83
2018-01-13T22:34:59.028Z,13.33
2018-01-13T22:37:27.298Z,12.97
2018-01-13T22:39:55.566Z,13.27
2018-01-13T22:42:23.053Z,13.23
2018-01-13T22:44:50.562Z,13.97
2018-01-13T22:47:18.053Z,12.53
2018-01-13T22:49:46.312Z,12.50
2018-01-13T22:52:13.917Z,13.60
2018-01-13T22:54:41.418Z,12.23
2018-01-13T22:57:09.038Z,13.27
2018-01-13T22:59:36.533Z,11.67
2018-01-13T23:02:04.037Z,13.27
2018-01-13T23:04:32.295Z,12.43
2018-01-13T23:06:59.817Z,11.10
2018-01-13T23:09:27.797Z,10.97
2018-01-13T23:11:55.286Z,10.33
2018-01-13T23:14:23.557Z,12.03
2018-01-13T23:16:51.824Z,11.80
2018-01-13T23:19:19.330Z,10.67
2018-01-13T23:21:46.828Z,11.53
2018-01-13T23:24:14.344Z,11.30
2018-01-13T23:26:42.673Z,12.77
2018-01-13T23:29:10.187Z,12.00
2018-01-13T23:31:37.677Z,12.83
2018-01-13T23:34:05.171Z,12.77
2018-01-13T23:36:33.441Z,12.53
2018-01-13T23:39:01.698Z,12.40
2018-01-13T23:41:29.241Z,14.57
2018-01-13T23:43:56.743Z,13.00
2018-01-13T23:46:25.021Z,12.30
2018-01-13T23:48:53.305Z,13.50
2018-01-13T23:51:21.582Z,14.20
2018-01-13T23:53:49.836Z,13.03
2018-01-13T23:56:17.339Z,12.63
2018-01-13T23:58:44.871Z,12.20
